Pelagia — PGRQ — position and weather

sailwx.info

Track history (hours):
 
Tides and Currents Weather Stations Pressure Air Temp Water Temp Dewpoint Dewpoint Depression Visibility Wind Speed Wind Dir Waves Ship Positions

Oceanographic research ship Pelagia (Netherlands)

Detailed information on ship capabilities available from University of Delaware's Ocean Information Center and ARCUS's ALIAS (Arctic Logistics Information and Support) project.

Last reported at 2018-May-20 17:30 UTC. Time now 2018-May-20 17:41 UTC.
Position N 50°34' E 001°04'.

Length 66 m; beam 13 m.

Type: Other ship. MMSI: 244925000.

Date/timePositionNaut miles runAvg speedWind from/ knotsBaromVisibWave heightAir tempDewpointWater temp
2018-May-20 17:30N 50°34' E 001°04'5 9.9
2018-May-20 17:00N 50°30' E 001°00'411.5 1018.6
2018-May-20 16:41N 50°31' E 000°55'2 8.8
2018-May-20 16:28N 50°30' E 000°52'2 4.9
2018-May-20 16:00N 50°30' E 000°48'2127.3 1019.1
2018-May-20 15:58N 50°29' E 000°45'10 9.8
2018-May-20 15:00N 50°30' E 000°30'811.4 1019.8
2018-May-20 14:19N 50°25' E 000°21'310.2
2018-May-20 14:00N 50°24' E 000°16'1100.1
2018-May-20 14:00N 50°24' E 000°18'613.2 1020.5
2018-May-20 13:30N 50°23' E 000°08'611.3
2018-May-20 13:00N 50°21' W 000°00'3213.0
2018-May-20 13:00N 50°18' E 000°00'612.8 1021.4
2018-May-20 12:30N 50°20' W 000°09'611.6
2018-May-20 12:00N 50°19' W 000°18'177.7
2018-May-20 12:00N 50°18' W 000°18'712.0 1022.3
2018-May-20 11:24N 50°17' W 000°29'511.6
2018-May-20 11:00N 50°18' W 000°36'3152.6 1022.7
2018-May-20 10:58N 50°15' W 000°36'611.6
2018-May-20 10:30N 50°13' W 000°45'611.2
2018-May-20 10:00N 50°12' W 000°53'190.2
2018-May-20 10:00N 50°12' W 000°54'510.1 1022.6
2018-May-20 09:29N 50°10' W 001°01'510.2
2018-May-20 09:00N 50°09' W 001°09'4340.5
2018-May-20 09:00N 50°12' W 001°12'510.5 1022.8
2018-May-20 08:31N 50°08' W 001°16'4 8.7
2018-May-20 08:01N 50°06' W 001°22'164.3
2018-May-20 08:00N 50°06' W 001°24'3 5.9 1022.7
2018-May-20 07:31N 50°05' W 001°28'4 7.0
2018-May-20 07:00N 50°05' W 001°34'2146.6
2018-May-20 07:00N 50°06' W 001°36'2 4.9 1022.8
2018-May-20 06:30N 50°04' W 001°39'3 5.9
2018-May-20 06:01N 50°04' W 001°43'2127.9
2018-May-20 06:00N 50°06' W 001°42'5 9.4 1022.7
2018-May-20 05:31N 50°03' W 001°48'3 5.7
2018-May-20 05:00N 50°02' W 001°52'3187.2
2018-May-20 05:00N 50°00' W 001°54'4 3.9 1022.3
2018-May-20 04:00N 50°00' W 002°00'8 7.7 1022.1
2018-May-20 03:00N 50°00' W 002°12'4 7.7 1022.4
2018-May-20 02:26N 49°58' W 002°18'410.1
2018-May-20 02:00N 50°00' W 002°24'614.5 1022.5
2018-May-20 01:37N 49°56' W 002°29'1 9.8
2018-May-20 01:29N 49°55' W 002°31'714.4
2018-May-20 01:00N 49°54' W 002°42'227.1 1022.5
2018-May-20 00:56N 49°54' W 002°40'410.3
2018-May-20 00:30N 49°53' W 002°46'713.5
2018-May-20 00:00N 49°48' W 002°54'1211.6 1022.7
2018-May-19 23:00N 49°48' W 003°12'1 5.5 1022.6
2018-May-19 22:47N 49°47' W 003°13'310.8
2018-May-19 22:30N 49°46' W 003°18'4 8.4
2018-May-19 22:00N 49°48' W 003°24'458.7 1022.4
2018-May-19 21:55N 49°44' W 003°27'511.0
2018-May-19 21:30N 49°43' W 003°34'510.3
2018-May-19 21:00N 49°42' W 003°42'313.2 1022.5
2018-May-19 20:46N 49°41' W 003°46'311.1
2018-May-19 20:30N 49°40' W 003°50'714.2
2018-May-19 20:00N 49°36' W 004°00'1211.7 1022.2
2018-May-19 19:00N 49°36' W 004°18'10 9.8 1022.2
2018-May-19 18:00N 49°30' W 004°30'1211.7 1022.2
2018-May-19 17:00N 49°30' W 004°48'17 8.4 1022.8
2018-May-19 15:00N 49°24' W 005°12'8 7.8 1023.5
2018-May-19 14:00N 49°24' W 005°24'514.8 1023.7
2018-May-19 13:40N 49°21' W 005°29'5 7.7
2018-May-19 13:00N 49°18' W 005°36'310.7 1024.1
2018-May-19 12:40N 49°18' W 005°41'1 8.7
2018-May-19 12:30N 49°18' W 005°43'3 5.9
2018-May-19 12:00N 49°18' W 005°48'8 7.8 1024.3
2018-May-19 11:00N 49°18' W 006°00'1013.0 1024.1
2018-May-19 10:13N 49°13' W 006°13'314.2
2018-May-19 10:00N 49°12' W 006°18'0 4.5 1024.0
2018-May-19 09:55N 49°12' W 006°17'4 9.5
2018-May-19 09:27N 49°11' W 006°24'4 9.8
2018-May-19 09:00N 49°10' W 006°30'2175.3
2018-May-19 09:00N 49°12' W 006°30'612.5 1023.8
2018-May-19 08:30N 49°09' W 006°38'510.1
2018-May-19 08:00N 49°07' W 006°45'2140.4
2018-May-19 08:00N 49°06' W 006°48'3 6.4 1023.6
2018-May-19 07:30N 49°06' W 006°53'510.3
2018-May-19 07:00N 49°06' W 007°01'1124.9
2018-May-19 07:00N 49°06' W 007°00'611.4 1023.2
2018-May-19 06:30N 49°05' W 007°08'612.6
2018-May-19 06:00N 49°06' W 007°18'2105.0 1022.9
2018-May-19 05:58N 49°04' W 007°16'510.3
2018-May-19 05:30N 49°02' W 007°23'510.2
2018-May-19 05:00N 49°01' W 007°31'165.6
2018-May-19 05:00N 49°00' W 007°30'511.2 1022.9
2018-May-19 04:30N 48°59' W 007°38'5 9.9
2018-May-19 04:00N 48°58' W 007°45'3182.7
2018-May-19 04:00N 49°00' W 007°48'510.2 1023.0
2018-May-19 03:30N 48°56' W 007°52'5 9.4
2018-May-19 03:00N 48°54' W 007°59'149.7
2018-May-19 03:00N 48°54' W 008°00'4 8.0 1023.1
2018-May-19 02:28N 48°52' W 008°06'612.6
2018-May-19 02:00N 48°48' W 008°12'3466.8 1023.2
2018-May-19 01:59N 48°51' W 008°12'4 8.8
2018-May-19 01:30N 48°50' W 008°18'4 8.6
2018-May-19 01:00N 48°48' W 008°24'017.7
2018-May-19 01:00N 48°48' W 008°24'8 7.9 1023.5
2018-May-19 00:00N 48°48' W 008°36'10 9.9 1023.6
2018-May-18 23:00N 48°42' W 008°48'8 7.9 1023.9
2018-May-18 22:00N 48°42' W 009°00'413.1 1024.0
2018-May-18 21:40N 48°40' W 009°06'2 9.1
2018-May-18 21:29N 48°40' W 009°08'5 9.5
2018-May-18 21:00N 48°38' W 009°15'3394.6
2018-May-18 21:00N 48°36' W 009°18'8 7.9 1023.8
2018-May-18 20:00N 48°36' W 009°30'8 7.9 1023.3
2018-May-18 19:00N 48°36' W 009°42'1010.0 1023.3
2018-May-18 18:00N 48°30' W 009°54'0 0.0 1023.6
2018-May-18 17:00N 48°30' W 009°54'0 0.0 1023.8
2018-May-18 16:00N 48°30' W 009°54'7 7.2 1023.7
2018-May-18 15:00N 48°36' W 010°00'0 0.0 1023.9
2018-May-18 14:00N 48°36' W 010°00'0 0.0 1024.2
2018-May-18 13:00N 48°36' W 010°00'0 0.0 1024.4
2018-May-18 12:00N 48°36' W 010°00'0 0.0 1024.6
2018-May-18 11:00N 48°36' W 010°00'4 4.0 1024.8
2018-May-18 10:00N 48°36' W 009°54'0 0.0 1024.5
2018-May-18 09:00N 48°36' W 009°54'218.8 1024.5
2018-May-18 08:53N 48°35' W 009°56'6 6.3
2018-May-18 08:00N 48°36' W 009°48'0 0.0 1024.1
2018-May-18 07:00N 48°36' W 009°48'4 7.6 1024.0
2018-May-18 06:25N 48°40' W 009°45'3 7.4
2018-May-18 06:00N 48°42' W 009°48'328.8 1024.1
2018-May-18 05:53N 48°40' W 009°45'4 4.7
2018-May-18 05:00N 48°36' W 009°42'2 4.9 1024.2
2018-May-18 04:34N 48°38' W 009°41'0 5.5
2018-May-18 04:30N 48°38' W 009°40'2 3.5
2018-May-18 04:00N 48°37' W 009°43'186.6
2018-May-18 04:00N 48°36' W 009°42'3 5.7 1023.8
2018-May-18 03:27N 48°35' W 009°47'1 2.3
2018-May-18 03:00N 48°36' W 009°48'2167.2 1024.1
2018-May-18 02:59N 48°34' W 009°50'2 2.5
2018-May-18 02:00N 48°36' W 009°48'7 7.2 1024.6
2018-May-18 01:00N 48°42' W 009°42'0 0.0 1024.9
2018-May-18 00:00N 48°42' W 009°42'4 4.0 1025.2
2018-May-17 23:00N 48°42' W 009°48'8 7.9 1025.4
2018-May-17 22:00N 48°42' W 010°00'8 7.9 1025.5
2018-May-17 21:00N 48°42' W 009°48'4 4.0 1025.3
2018-May-17 20:00N 48°42' W 009°42'4 4.0 1024.8
2018-May-17 19:00N 48°42' W 009°48'7 7.2 1024.5
2018-May-17 18:00N 48°36' W 009°54'0 0.0 1024.6
2018-May-17 17:00N 48°36' W 009°54'4 4.0 1024.7
2018-May-17 16:00N 48°36' W 010°00'0 0.0 1024.7
2018-May-17 15:00N 48°36' W 010°00'0 0.0 1025.0
2018-May-17 14:00N 48°36' W 010°00'7 7.2 1025.7
2018-May-17 13:00N 48°42' W 010°06'0 0.0 1025.9
2018-May-17 12:00N 48°42' W 010°06'4 4.0 1025.7
2018-May-17 11:00N 48°42' W 010°00'8 7.9 1025.9
2018-May-17 10:00N 48°42' W 009°48'0 0.0 1025.9
2018-May-17 09:00N 48°42' W 009°48'6 6.0 1025.7
2018-May-17 08:00N 48°36' W 009°48'4 4.0 1025.3
2018-May-17 07:00N 48°36' W 009°54'0 0.0 1025.0
2018-May-17 06:00N 48°36' W 009°54'7 7.2 1025.0
2018-May-17 05:00N 48°42' W 009°48'4 4.0 1025.1
2018-May-17 04:00N 48°42' W 009°42'4 4.0 1025.4
2018-May-17 03:00N 48°42' W 009°48'7 7.2 1025.5
2018-May-17 02:00N 48°36' W 009°54'7 7.2 1026.2
2018-May-17 01:00N 48°42' W 009°48'0 0.0 1026.7
2018-May-17 00:00N 48°42' W 009°48'7 7.2 1026.8
2018-May-16 23:00N 48°36' W 009°54'4 4.0 1027.2
2018-May-16 22:00N 48°36' W 009°48'7 7.2 1027.4
2018-May-16 21:00N 48°42' W 009°42'4 4.0 1027.5
2018-May-16 20:00N 48°42' W 009°48'7 7.2 1027.2
2018-May-16 19:00N 48°36' W 009°54'0 0.0 1026.8
2018-May-16 18:00N 48°36' W 009°54'4 4.0 1026.9
2018-May-16 17:00N 48°36' W 009°48'0 0.0 1026.9
2018-May-16 16:00N 48°36' W 009°48'6 6.0 1027.1
2018-May-16 15:00N 48°42' W 009°48'0 0.0 1027.6
2018-May-16 14:00N 48°42' W 009°48'8 7.9 1027.9
2018-May-16 13:00N 48°42' W 010°00'7 7.2 1028.2
2018-May-16 12:00N 48°48' W 010°06'6 6.0 1029.1
2018-May-16 11:00N 48°42' W 010°06'0 0.0 1028.9
2018-May-16 10:00N 48°42' W 010°06'0 0.0 1029.0
2018-May-16 09:00N 48°42' W 010°06'0 0.0 1028.7
2018-May-16 08:00N 48°42' W 010°06'0 0.0 1028.5
2018-May-16 07:00N 48°42' W 010°06'0 0.0 1027.9
2018-May-16 06:00N 48°42' W 010°06'8 7.9 1027.7
2018-May-16 05:00N 48°42' W 009°54'7 7.2 1027.1
2018-May-16 04:00N 48°36' W 009°48'0 0.0 1026.7
2018-May-16 03:00N 48°36' W 009°48'7 7.2 1027.0
2018-May-16 02:00N 48°42' W 009°42'6 6.0 1027.1
2018-May-16 01:00N 48°36' W 009°42'4 4.0 1027.0
2018-May-16 00:00N 48°36' W 009°48'0 0.0 1027.3
2018-May-15 23:00N 48°36' W 009°48'4 4.0 1027.6
2018-May-15 22:00N 48°36' W 009°42'0 0.0 1027.5
2018-May-15 21:00N 48°36' W 009°42'4 4.0 1027.0
2018-May-15 20:00N 48°36' W 009°48'4 4.0 1026.4
2018-May-15 19:00N 48°36' W 009°54'10 9.9 1026.2
2018-May-15 18:00N 48°42' W 010°06'0 0.0 1025.8
2018-May-15 17:00N 48°42' W 010°06'0 0.0 1025.6
2018-May-15 16:00N 48°42' W 010°06'4 4.0 1025.6
2018-May-15 15:00N 48°42' W 010°00'7 3.6 1025.8
2018-May-15 13:00N 48°36' W 009°54'0 0.0 1026.3
2018-May-15 12:00N 48°36' W 009°54'0 0.0 1026.6
2018-May-15 11:00N 48°36' W 009°54'0 0.0 1026.7
2018-May-15 10:00N 48°36' W 009°54'4 4.0 1026.4
2018-May-15 09:00N 48°36' W 009°48'0 0.0 1026.4
2018-May-15 08:00N 48°36' W 009°48'6 6.0 1026.2
2018-May-15 07:00N 48°42' W 009°48'4 4.0 1025.9
2018-May-15 06:00N 48°42' W 009°54'7 7.2 1025.7
2018-May-15 05:00N 48°36' W 009°48'6 6.0 1025.2
2018-May-15 04:00N 48°30' W 009°48'4 4.0 1025.2
2018-May-15 03:00N 48°30' W 009°54'4 4.0 1025.1
2018-May-15 02:00N 48°30' W 009°48'7 7.2 1025.4
2018-May-15 01:00N 48°36' W 009°42'7 7.2 1025.5
2018-May-15 00:00N 48°30' W 009°48'4 4.0 1025.9
2018-May-14 23:00N 48°30' W 009°54'0 0.0 1026.1
2018-May-14 22:00N 48°30' W 009°54'4 4.0 1026.3
2018-May-14 21:00N 48°30' W 009°48'7 7.2 1026.2
2018-May-14 20:00N 48°36' W 009°42'7 7.2 1025.7
2018-May-14 19:00N 48°42' W 009°48'0 0.0 1025.3
2018-May-14 18:00N 48°42' W 009°48'0 0.0 1025.3
2018-May-14 17:00N 48°42' W 009°48'6 6.0 1025.2
2018-May-14 16:00N 48°36' W 009°48'7 3.6 1025.3
2018-May-14 14:00N 48°30' W 009°54'6 6.0 1025.4
2018-May-14 13:00N 48°36' W 009°54'0 0.0 1025.1
2018-May-14 12:00N 48°36' W 009°54'1312.6 1024.9
2018-May-14 11:00N 48°24' W 010°00'0 0.0 1024.4
2018-May-14 10:00N 48°24' W 010°00'0 0.0 1024.4
2018-May-14 09:00N 48°24' W 010°00'8 8.0 1024.2
2018-May-14 08:00N 48°24' W 009°48'0 0.0 1023.8
2018-May-14 07:00N 48°24' W 009°48'0 0.0 1023.5
2018-May-14 06:00N 48°24' W 009°48'7 7.2 1022.6
2018-May-14 05:00N 48°30' W 009°54'4 4.0 1022.0
2018-May-14 04:00N 48°30' W 009°48'0 0.0 1021.4
2018-May-14 03:00N 48°30' W 009°48'4 4.0 1021.3
2018-May-14 02:00N 48°30' W 009°42'4 4.0 1020.9
2018-May-14 01:00N 48°30' W 009°48'0 0.0 1020.8
2018-May-14 00:00N 48°30' W 009°48'4 4.0 1021.1
2018-May-13 23:00N 48°30' W 009°42'0 0.0 1020.7
2018-May-13 22:00N 48°30' W 009°42'0 0.0 1020.5
2018-May-13 21:00N 48°30' W 009°42'0 0.0 1019.9
2018-May-13 20:00N 48°30' W 009°42'4 4.0 1019.6
2018-May-13 19:00N 48°30' W 009°48'7 7.2 1018.9
2018-May-13 18:00N 48°36' W 009°54'7 7.2 1018.5
2018-May-13 17:00N 48°42' W 010°00'6 6.0 1018.0
2018-May-13 16:00N 48°36' W 010°00'6 3.0 1017.9
2018-May-13 14:00N 48°30' W 010°00'0 0.0 1017.7
2018-May-13 13:00N 48°30' W 010°00'0 0.0 1017.8
2018-May-13 12:00N 48°30' W 010°00'0 0.0 1018.0
2018-May-13 11:00N 48°30' W 010°00'4 4.0 1018.4
2018-May-13 10:00N 48°30' W 009°54'0 0.0 1018.4
2018-May-13 09:00N 48°30' W 009°54'4 4.0 1018.2
2018-May-13 08:00N 48°30' W 010°00'4 4.0 1018.2
2018-May-13 07:00N 48°30' W 009°54'0 0.0 1017.9
2018-May-13 06:00N 48°30' W 009°54'0 0.0 1017.3
2018-May-13 05:00N 48°30' W 009°54'4 4.0 1017.0
2018-May-13 04:00N 48°30' W 009°48'4 4.0 1016.8
2018-May-13 03:00N 48°30' W 009°54'4 4.0 1016.8
2018-May-13 02:00N 48°30' W 009°48'4 4.0 1016.9
2018-May-13 01:00N 48°30' W 009°42'0 0.0 1016.8
2018-May-13 00:00N 48°30' W 009°42'8 4.0 1017.1
2018-May-12 22:00N 48°30' W 009°54'4 4.0 1016.6
2018-May-12 21:00N 48°30' W 009°48'8 8.0 1016.6
2018-May-12 20:00N 48°30' W 009°36'8 8.0 1015.9
2018-May-12 19:00N 48°30' W 009°48'4 4.0 1015.9
2018-May-12 18:00N 48°30' W 009°54'0 0.0 1015.7
2018-May-12 17:00N 48°30' W 009°54'0 0.0 1015.3
2018-May-12 16:00N 48°30' W 009°54'6 6.0 1015.2
2018-May-12 15:00N 48°36' W 009°54'4 4.0 1014.6
2018-May-12 14:00N 48°36' W 009°48'4 4.0 1014.5
2018-May-12 13:00N 48°36' W 009°54'0 0.0 1014.4
2018-May-12 12:00N 48°36' W 009°54'0 0.0 1014.0
2018-May-12 11:00N 48°36' W 009°54'3110.3 1013.6
2018-May-12 08:00N 49°06' W 010°06'7 7.2 1012.1
2018-May-12 07:00N 49°12' W 010°12'6 6.0 1011.7
2018-May-12 06:00N 49°18' W 010°12'1212.0 1011.0
2018-May-12 05:00N 49°30' W 010°12'1312.6 1010.7
2018-May-12 04:00N 49°42' W 010°18'6 6.0 1010.6
2018-May-12 03:00N 49°48' W 010°18'1212.0 1010.3
2018-May-12 02:00N 50°00' W 010°18'6 6.0 1010.1
2018-May-12 01:00N 50°06' W 010°18'7 7.1 1010.0
2018-May-12 00:00N 50°12' W 010°24'6 6.0 1010.4
2018-May-11 23:00N 50°18' W 010°24'1212.0 1010.4
2018-May-11 22:00N 50°30' W 010°24'13 6.3 1009.6
2018-May-11 20:00N 50°42' W 010°30'6 6.0 1009.7
2018-May-11 19:00N 50°48' W 010°30'6 6.0 1008.9
2018-May-11 18:00N 50°54' W 010°30'1212.0 1008.2
2018-May-11 17:00N 51°06' W 010°30'7 7.1 1007.8
2018-May-11 16:00N 51°12' W 010°36'6 6.0 1007.4
2018-May-11 15:00N 51°18' W 010°36'6 6.0 1007.0
2018-May-11 14:00N 51°24' W 010°36'6 6.0 1006.4
2018-May-11 13:00N 51°30' W 010°36'7 7.1 1005.2
2018-May-11 12:00N 51°36' W 010°42'6 6.0 1004.1
2018-May-11 11:00N 51°42' W 010°42'6 6.0 1003.0
2018-May-11 10:00N 51°48' W 010°42'6 6.0 1002.2
2018-May-11 09:00N 51°54' W 010°42'3 4.7 1001.1
2018-May-11 08:18N 51°57' W 010°44'412.3
2018-May-11 08:00N 52°00' W 010°48'7 7.0 1000.2
2018-May-11 07:00N 52°06' W 010°42'1 1.6 998.7
2018-May-11 06:16N 52°07' W 010°43'1 4.9
2018-May-11 06:00N 52°08' W 010°42'2673.6
2018-May-11 06:00N 52°06' W 010°42'5 9.5 997.2
2018-May-11 05:29N 52°11' W 010°41'1 2.6
2018-May-11 05:00N 52°12' W 010°42'1363.8 994.2
2018-May-11 04:59N 52°12' W 010°41'1 2.8
2018-May-11 04:30N 52°14' W 010°39'5 9.6
2018-May-11 04:00N 52°18' W 010°36'394.9 995.9
2018-May-11 03:57N 52°15' W 010°37'2 2.9
2018-May-11 03:19N 52°16' W 010°35'2 7.6
2018-May-11 03:00N 52°18' W 010°36'2148.9 997.0
2018-May-11 02:59N 52°16' W 010°33'2 3.2
2018-May-11 02:24N 52°17' W 010°31'1 2.2
2018-May-11 02:00N 52°18' W 010°30'4 3.7 998.5
2018-May-11 01:00N 52°18' W 010°24'7 7.0 1000.3
2018-May-11 00:00N 52°24' W 010°18'2 3.1 1002.8
2018-May-10 23:22N 52°25' W 010°16'513.7
2018-May-10 23:00N 52°30' W 010°12'215.8 1004.9
2018-May-10 22:51N 52°28' W 010°13'2 6.3
2018-May-10 22:29N 52°30' W 010°10'3 5.2
2018-May-10 22:00N 52°30' W 010°06'2114.5 1006.3
2018-May-10 21:58N 52°32' W 010°07'3 6.4
2018-May-10 21:30N 52°35' W 010°04'3 6.3
2018-May-10 21:00N 52°37' W 010°00'173.0
2018-May-10 21:00N 52°36' W 010°00'7 7.0 1007.7
2018-May-10 20:00N 52°42' W 009°54'7 7.0 1008.8
2018-May-10 19:00N 52°48' W 009°48'7 7.0 1010.0
2018-May-10 18:00N 52°54' W 009°42'   1011.3
Track history (hours):
 
Tides and Currents Weather Stations Pressure Air Temp Water Temp Dewpoint Dewpoint Depression Visibility Wind Speed Wind Dir Waves Ship Positions

Oceanographic research ship Pelagia (Netherlands)

Detailed information on ship capabilities available from University of Delaware's Ocean Information Center and ARCUS's ALIAS (Arctic Logistics Information and Support) project.

Last reported at 2018-May-20 17:30 UTC. Time now 2018-May-20 17:41 UTC.
Position N 50°34' E 001°04'.

Length 66 m; beam 13 m.

Type: Other ship. MMSI: 244925000.

Date/timePositionNaut miles runAvg speedWind from/ knotsBaromVisibWave heightAir tempDewpointWater temp
2018-May-20 17:30N 50°34' E 001°04'5 9.9
2018-May-20 17:00N 50°30' E 001°00'411.5 1018.6
2018-May-20 16:41N 50°31' E 000°55'2 8.8
2018-May-20 16:28N 50°30' E 000°52'2 4.9
2018-May-20 16:00N 50°30' E 000°48'2127.3 1019.1
2018-May-20 15:58N 50°29' E 000°45'10 9.8
2018-May-20 15:00N 50°30' E 000°30'811.4 1019.8
2018-May-20 14:19N 50°25' E 000°21'310.2
2018-May-20 14:00N 50°24' E 000°16'1100.1
2018-May-20 14:00N 50°24' E 000°18'613.2 1020.5
2018-May-20 13:30N 50°23' E 000°08'611.3
2018-May-20 13:00N 50°21' W 000°00'3213.0
2018-May-20 13:00N 50°18' E 000°00'612.8 1021.4
2018-May-20 12:30N 50°20' W 000°09'611.6
2018-May-20 12:00N 50°19' W 000°18'177.7
2018-May-20 12:00N 50°18' W 000°18'712.0 1022.3
2018-May-20 11:24N 50°17' W 000°29'511.6
2018-May-20 11:00N 50°18' W 000°36'3152.6 1022.7
2018-May-20 10:58N 50°15' W 000°36'611.6
2018-May-20 10:30N 50°13' W 000°45'611.2
2018-May-20 10:00N 50°12' W 000°53'190.2
2018-May-20 10:00N 50°12' W 000°54'510.1 1022.6
2018-May-20 09:29N 50°10' W 001°01'510.2
2018-May-20 09:00N 50°09' W 001°09'4340.5
2018-May-20 09:00N 50°12' W 001°12'510.5 1022.8
2018-May-20 08:31N 50°08' W 001°16'4 8.7
2018-May-20 08:01N 50°06' W 001°22'164.3
2018-May-20 08:00N 50°06' W 001°24'3 5.9 1022.7
2018-May-20 07:31N 50°05' W 001°28'4 7.0
2018-May-20 07:00N 50°05' W 001°34'2146.6
2018-May-20 07:00N 50°06' W 001°36'2 4.9 1022.8
2018-May-20 06:30N 50°04' W 001°39'3 5.9
2018-May-20 06:01N 50°04' W 001°43'2127.9
2018-May-20 06:00N 50°06' W 001°42'5 9.4 1022.7
2018-May-20 05:31N 50°03' W 001°48'3 5.7
2018-May-20 05:00N 50°02' W 001°52'3187.2
2018-May-20 05:00N 50°00' W 001°54'4 3.9 1022.3
2018-May-20 04:00N 50°00' W 002°00'8 7.7 1022.1
2018-May-20 03:00N 50°00' W 002°12'4 7.7 1022.4
2018-May-20 02:26N 49°58' W 002°18'410.1
2018-May-20 02:00N 50°00' W 002°24'614.5 1022.5
2018-May-20 01:37N 49°56' W 002°29'1 9.8
2018-May-20 01:29N 49°55' W 002°31'714.4
2018-May-20 01:00N 49°54' W 002°42'227.1 1022.5
2018-May-20 00:56N 49°54' W 002°40'410.3
2018-May-20 00:30N 49°53' W 002°46'713.5
2018-May-20 00:00N 49°48' W 002°54'1211.6 1022.7
2018-May-19 23:00N 49°48' W 003°12'1 5.5 1022.6
2018-May-19 22:47N 49°47' W 003°13'310.8
2018-May-19 22:30N 49°46' W 003°18'4 8.4
2018-May-19 22:00N 49°48' W 003°24'458.7 1022.4
2018-May-19 21:55N 49°44' W 003°27'511.0
2018-May-19 21:30N 49°43' W 003°34'510.3
2018-May-19 21:00N 49°42' W 003°42'313.2 1022.5
2018-May-19 20:46N 49°41' W 003°46'311.1
2018-May-19 20:30N 49°40' W 003°50'714.2
2018-May-19 20:00N 49°36' W 004°00'1211.7 1022.2
2018-May-19 19:00N 49°36' W 004°18'10 9.8 1022.2
2018-May-19 18:00N 49°30' W 004°30'1211.7 1022.2
2018-May-19 17:00N 49°30' W 004°48'17 8.4 1022.8
2018-May-19 15:00N 49°24' W 005°12'8 7.8 1023.5
2018-May-19 14:00N 49°24' W 005°24'514.8 1023.7
2018-May-19 13:40N 49°21' W 005°29'5 7.7
2018-May-19 13:00N 49°18' W 005°36'310.7 1024.1
2018-May-19 12:40N 49°18' W 005°41'1 8.7
2018-May-19 12:30N 49°18' W 005°43'3 5.9
2018-May-19 12:00N 49°18' W 005°48'8 7.8 1024.3
2018-May-19 11:00N 49°18' W 006°00'1013.0 1024.1
2018-May-19 10:13N 49°13' W 006°13'314.2
2018-May-19 10:00N 49°12' W 006°18'0 4.5 1024.0
2018-May-19 09:55N 49°12' W 006°17'4 9.5
2018-May-19 09:27N 49°11' W 006°24'4 9.8
2018-May-19 09:00N 49°10' W 006°30'2175.3
2018-May-19 09:00N 49°12' W 006°30'612.5 1023.8
2018-May-19 08:30N 49°09' W 006°38'510.1
2018-May-19 08:00N 49°07' W 006°45'2140.4
2018-May-19 08:00N 49°06' W 006°48'3 6.4 1023.6
2018-May-19 07:30N 49°06' W 006°53'510.3
2018-May-19 07:00N 49°06' W 007°01'1124.9
2018-May-19 07:00N 49°06' W 007°00'611.4 1023.2
2018-May-19 06:30N 49°05' W 007°08'612.6
2018-May-19 06:00N 49°06' W 007°18'2105.0 1022.9
2018-May-19 05:58N 49°04' W 007°16'510.3
2018-May-19 05:30N 49°02' W 007°23'510.2
2018-May-19 05:00N 49°01' W 007°31'165.6
2018-May-19 05:00N 49°00' W 007°30'511.2 1022.9
2018-May-19 04:30N 48°59' W 007°38'5 9.9
2018-May-19 04:00N 48°58' W 007°45'3182.7
2018-May-19 04:00N 49°00' W 007°48'510.2 1023.0
2018-May-19 03:30N 48°56' W 007°52'5 9.4
2018-May-19 03:00N 48°54' W 007°59'149.7
2018-May-19 03:00N 48°54' W 008°00'4 8.0 1023.1
2018-May-19 02:28N 48°52' W 008°06'612.6
2018-May-19 02:00N 48°48' W 008°12'3466.8 1023.2
2018-May-19 01:59N 48°51' W 008°12'4 8.8
2018-May-19 01:30N 48°50' W 008°18'4 8.6
2018-May-19 01:00N 48°48' W 008°24'017.7
2018-May-19 01:00N 48°48' W 008°24'8 7.9 1023.5
2018-May-19 00:00N 48°48' W 008°36'10 9.9 1023.6
2018-May-18 23:00N 48°42' W 008°48'8 7.9 1023.9
2018-May-18 22:00N 48°42' W 009°00'413.1 1024.0
2018-May-18 21:40N 48°40' W 009°06'2 9.1
2018-May-18 21:29N 48°40' W 009°08'5 9.5
2018-May-18 21:00N 48°38' W 009°15'3394.6
2018-May-18 21:00N 48°36' W 009°18'8 7.9 1023.8
2018-May-18 20:00N 48°36' W 009°30'8 7.9 1023.3
2018-May-18 19:00N 48°36' W 009°42'1010.0 1023.3
2018-May-18 18:00N 48°30' W 009°54'0 0.0 1023.6
2018-May-18 17:00N 48°30' W 009°54'0 0.0 1023.8
2018-May-18 16:00N 48°30' W 009°54'7 7.2 1023.7
2018-May-18 15:00N 48°36' W 010°00'0 0.0 1023.9
2018-May-18 14:00N 48°36' W 010°00'0 0.0 1024.2
2018-May-18 13:00N 48°36' W 010°00'0 0.0 1024.4
2018-May-18 12:00N 48°36' W 010°00'0 0.0 1024.6
2018-May-18 11:00N 48°36' W 010°00'4 4.0 1024.8
2018-May-18 10:00N 48°36' W 009°54'0 0.0 1024.5
2018-May-18 09:00N 48°36' W 009°54'218.8 1024.5
2018-May-18 08:53N 48°35' W 009°56'6 6.3
2018-May-18 08:00N 48°36' W 009°48'0 0.0 1024.1
2018-May-18 07:00N 48°36' W 009°48'4 7.6 1024.0
2018-May-18 06:25N 48°40' W 009°45'3 7.4
2018-May-18 06:00N 48°42' W 009°48'328.8 1024.1
2018-May-18 05:53N 48°40' W 009°45'4 4.7
2018-May-18 05:00N 48°36' W 009°42'2 4.9 1024.2
2018-May-18 04:34N 48°38' W 009°41'0 5.5
2018-May-18 04:30N 48°38' W 009°40'2 3.5
2018-May-18 04:00N 48°37' W 009°43'186.6
2018-May-18 04:00N 48°36' W 009°42'3 5.7 1023.8
2018-May-18 03:27N 48°35' W 009°47'1 2.3
2018-May-18 03:00N 48°36' W 009°48'2167.2 1024.1
2018-May-18 02:59N 48°34' W 009°50'2 2.5
2018-May-18 02:00N 48°36' W 009°48'7 7.2 1024.6
2018-May-18 01:00N 48°42' W 009°42'0 0.0 1024.9
2018-May-18 00:00N 48°42' W 009°42'4 4.0 1025.2
2018-May-17 23:00N 48°42' W 009°48'8 7.9 1025.4
2018-May-17 22:00N 48°42' W 010°00'8 7.9 1025.5
2018-May-17 21:00N 48°42' W 009°48'4 4.0 1025.3
2018-May-17 20:00N 48°42' W 009°42'4 4.0 1024.8
2018-May-17 19:00N 48°42' W 009°48'7 7.2 1024.5
2018-May-17 18:00N 48°36' W 009°54'0 0.0 1024.6
2018-May-17 17:00N 48°36' W 009°54'4 4.0 1024.7
2018-May-17 16:00N 48°36' W 010°00'0 0.0 1024.7
2018-May-17 15:00N 48°36' W 010°00'0 0.0 1025.0
2018-May-17 14:00N 48°36' W 010°00'7 7.2 1025.7
2018-May-17 13:00N 48°42' W 010°06'0 0.0 1025.9
2018-May-17 12:00N 48°42' W 010°06'4 4.0 1025.7
2018-May-17 11:00N 48°42' W 010°00'8 7.9 1025.9
2018-May-17 10:00N 48°42' W 009°48'0 0.0 1025.9
2018-May-17 09:00N 48°42' W 009°48'6 6.0 1025.7
2018-May-17 08:00N 48°36' W 009°48'4 4.0 1025.3
2018-May-17 07:00N 48°36' W 009°54'0 0.0 1025.0
2018-May-17 06:00N 48°36' W 009°54'7 7.2 1025.0
2018-May-17 05:00N 48°42' W 009°48'4 4.0 1025.1
2018-May-17 04:00N 48°42' W 009°42'4 4.0 1025.4
2018-May-17 03:00N 48°42' W 009°48'7 7.2 1025.5
2018-May-17 02:00N 48°36' W 009°54'7 7.2 1026.2
2018-May-17 01:00N 48°42' W 009°48'0 0.0 1026.7
2018-May-17 00:00N 48°42' W 009°48'7 7.2 1026.8
2018-May-16 23:00N 48°36' W 009°54'4 4.0 1027.2
2018-May-16 22:00N 48°36' W 009°48'7 7.2 1027.4
2018-May-16 21:00N 48°42' W 009°42'4 4.0 1027.5
2018-May-16 20:00N 48°42' W 009°48'7 7.2 1027.2
2018-May-16 19:00N 48°36' W 009°54'0 0.0 1026.8
2018-May-16 18:00N 48°36' W 009°54'4 4.0 1026.9
2018-May-16 17:00N 48°36' W 009°48'0 0.0 1026.9
2018-May-16 16:00N 48°36' W 009°48'6 6.0 1027.1
2018-May-16 15:00N 48°42' W 009°48'0 0.0 1027.6
2018-May-16 14:00N 48°42' W 009°48'8 7.9 1027.9
2018-May-16 13:00N 48°42' W 010°00'7 7.2 1028.2
2018-May-16 12:00N 48°48' W 010°06'6 6.0 1029.1
2018-May-16 11:00N 48°42' W 010°06'0 0.0 1028.9
2018-May-16 10:00N 48°42' W 010°06'0 0.0 1029.0
2018-May-16 09:00N 48°42' W 010°06'0 0.0 1028.7
2018-May-16 08:00N 48°42' W 010°06'0 0.0 1028.5
2018-May-16 07:00N 48°42' W 010°06'0 0.0 1027.9
2018-May-16 06:00N 48°42' W 010°06'8 7.9 1027.7
2018-May-16 05:00N 48°42' W 009°54'7 7.2 1027.1
2018-May-16 04:00N 48°36' W 009°48'0 0.0 1026.7
2018-May-16 03:00N 48°36' W 009°48'7 7.2 1027.0
2018-May-16 02:00N 48°42' W 009°42'6 6.0 1027.1
2018-May-16 01:00N 48°36' W 009°42'4 4.0 1027.0
2018-May-16 00:00N 48°36' W 009°48'0 0.0 1027.3
2018-May-15 23:00N 48°36' W 009°48'4 4.0 1027.6
2018-May-15 22:00N 48°36' W 009°42'0 0.0 1027.5
2018-May-15 21:00N 48°36' W 009°42'4 4.0 1027.0
2018-May-15 20:00N 48°36' W 009°48'4 4.0 1026.4
2018-May-15 19:00N 48°36' W 009°54'10 9.9 1026.2
2018-May-15 18:00N 48°42' W 010°06'0 0.0 1025.8
2018-May-15 17:00N 48°42' W 010°06'0 0.0 1025.6
2018-May-15 16:00N 48°42' W 010°06'4 4.0 1025.6
2018-May-15 15:00N 48°42' W 010°00'7 3.6 1025.8
2018-May-15 13:00N 48°36' W 009°54'0 0.0 1026.3
2018-May-15 12:00N 48°36' W 009°54'0 0.0 1026.6
2018-May-15 11:00N 48°36' W 009°54'0 0.0 1026.7
2018-May-15 10:00N 48°36' W 009°54'4 4.0 1026.4
2018-May-15 09:00N 48°36' W 009°48'0 0.0 1026.4
2018-May-15 08:00N 48°36' W 009°48'6 6.0 1026.2
2018-May-15 07:00N 48°42' W 009°48'4 4.0 1025.9
2018-May-15 06:00N 48°42' W 009°54'7 7.2 1025.7
2018-May-15 05:00N 48°36' W 009°48'6 6.0 1025.2
2018-May-15 04:00N 48°30' W 009°48'4 4.0 1025.2
2018-May-15 03:00N 48°30' W 009°54'4 4.0 1025.1
2018-May-15 02:00N 48°30' W 009°48'7 7.2 1025.4
2018-May-15 01:00N 48°36' W 009°42'7 7.2 1025.5
2018-May-15 00:00N 48°30' W 009°48'4 4.0 1025.9
2018-May-14 23:00N 48°30' W 009°54'0 0.0 1026.1
2018-May-14 22:00N 48°30' W 009°54'4 4.0 1026.3
2018-May-14 21:00N 48°30' W 009°48'7 7.2 1026.2
2018-May-14 20:00N 48°36' W 009°42'7 7.2 1025.7
2018-May-14 19:00N 48°42' W 009°48'0 0.0 1025.3
2018-May-14 18:00N 48°42' W 009°48'0 0.0 1025.3
2018-May-14 17:00N 48°42' W 009°48'6 6.0 1025.2
2018-May-14 16:00N 48°36' W 009°48'7 3.6 1025.3
2018-May-14 14:00N 48°30' W 009°54'6 6.0 1025.4
2018-May-14 13:00N 48°36' W 009°54'0 0.0 1025.1
2018-May-14 12:00N 48°36' W 009°54'1312.6 1024.9
2018-May-14 11:00N 48°24' W 010°00'0 0.0 1024.4
2018-May-14 10:00N 48°24' W 010°00'0 0.0 1024.4
2018-May-14 09:00N 48°24' W 010°00'8 8.0 1024.2
2018-May-14 08:00N 48°24' W 009°48'0 0.0 1023.8
2018-May-14 07:00N 48°24' W 009°48'0 0.0 1023.5
2018-May-14 06:00N 48°24' W 009°48'7 7.2 1022.6
2018-May-14 05:00N 48°30' W 009°54'4 4.0 1022.0
2018-May-14 04:00N 48°30' W 009°48'0 0.0 1021.4
2018-May-14 03:00N 48°30' W 009°48'4 4.0 1021.3
2018-May-14 02:00N 48°30' W 009°42'4 4.0 1020.9
2018-May-14 01:00N 48°30' W 009°48'0 0.0 1020.8
2018-May-14 00:00N 48°30' W 009°48'4 4.0 1021.1
2018-May-13 23:00N 48°30' W 009°42'0 0.0 1020.7
2018-May-13 22:00N 48°30' W 009°42'0 0.0 1020.5
2018-May-13 21:00N 48°30' W 009°42'0 0.0 1019.9
2018-May-13 20:00N 48°30' W 009°42'4 4.0 1019.6
2018-May-13 19:00N 48°30' W 009°48'7 7.2 1018.9
2018-May-13 18:00N 48°36' W 009°54'7 7.2 1018.5
2018-May-13 17:00N 48°42' W 010°00'6 6.0 1018.0
2018-May-13 16:00N 48°36' W 010°00'6 3.0 1017.9
2018-May-13 14:00N 48°30' W 010°00'0 0.0 1017.7
2018-May-13 13:00N 48°30' W 010°00'0 0.0 1017.8
2018-May-13 12:00N 48°30' W 010°00'0 0.0 1018.0
2018-May-13 11:00N 48°30' W 010°00'4 4.0 1018.4
2018-May-13 10:00N 48°30' W 009°54'0 0.0 1018.4
2018-May-13 09:00N 48°30' W 009°54'4 4.0 1018.2
2018-May-13 08:00N 48°30' W 010°00'4 4.0 1018.2
2018-May-13 07:00N 48°30' W 009°54'0 0.0 1017.9
2018-May-13 06:00N 48°30' W 009°54'0 0.0 1017.3
2018-May-13 05:00N 48°30' W 009°54'4 4.0 1017.0
2018-May-13 04:00N 48°30' W 009°48'4 4.0 1016.8
2018-May-13 03:00N 48°30' W 009°54'4 4.0 1016.8
2018-May-13 02:00N 48°30' W 009°48'4 4.0 1016.9
2018-May-13 01:00N 48°30' W 009°42'0 0.0 1016.8
2018-May-13 00:00N 48°30' W 009°42'8 4.0 1017.1
2018-May-12 22:00N 48°30' W 009°54'4 4.0 1016.6
2018-May-12 21:00N 48°30' W 009°48'8 8.0 1016.6
2018-May-12 20:00N 48°30' W 009°36'8 8.0 1015.9
2018-May-12 19:00N 48°30' W 009°48'4 4.0 1015.9
2018-May-12 18:00N 48°30' W 009°54'0 0.0 1015.7
2018-May-12 17:00N 48°30' W 009°54'0 0.0 1015.3
2018-May-12 16:00N 48°30' W 009°54'6 6.0 1015.2
2018-May-12 15:00N 48°36' W 009°54'4 4.0 1014.6
2018-May-12 14:00N 48°36' W 009°48'4 4.0 1014.5
2018-May-12 13:00N 48°36' W 009°54'0 0.0 1014.4
2018-May-12 12:00N 48°36' W 009°54'0 0.0 1014.0
2018-May-12 11:00N 48°36' W 009°54'3110.3 1013.6
2018-May-12 08:00N 49°06' W 010°06'7 7.2 1012.1
2018-May-12 07:00N 49°12' W 010°12'6 6.0 1011.7
2018-May-12 06:00N 49°18' W 010°12'1212.0 1011.0
2018-May-12 05:00N 49°30' W 010°12'1312.6 1010.7
2018-May-12 04:00N 49°42' W 010°18'6 6.0 1010.6
2018-May-12 03:00N 49°48' W 010°18'1212.0 1010.3
2018-May-12 02:00N 50°00' W 010°18'6 6.0 1010.1
2018-May-12 01:00N 50°06' W 010°18'7 7.1 1010.0
2018-May-12 00:00N 50°12' W 010°24'6 6.0 1010.4
2018-May-11 23:00N 50°18' W 010°24'1212.0 1010.4
2018-May-11 22:00N 50°30' W 010°24'13 6.3 1009.6
2018-May-11 20:00N 50°42' W 010°30'6 6.0 1009.7
2018-May-11 19:00N 50°48' W 010°30'6 6.0 1008.9
2018-May-11 18:00N 50°54' W 010°30'1212.0 1008.2
2018-May-11 17:00N 51°06' W 010°30'7 7.1 1007.8
2018-May-11 16:00N 51°12' W 010°36'6 6.0 1007.4
2018-May-11 15:00N 51°18' W 010°36'6 6.0 1007.0
2018-May-11 14:00N 51°24' W 010°36'6 6.0 1006.4
2018-May-11 13:00N 51°30' W 010°36'7 7.1 1005.2
2018-May-11 12:00N 51°36' W 010°42'6 6.0 1004.1
2018-May-11 11:00N 51°42' W 010°42'6 6.0 1003.0
2018-May-11 10:00N 51°48' W 010°42'6 6.0 1002.2
2018-May-11 09:00N 51°54' W 010°42'3 4.7 1001.1
2018-May-11 08:18N 51°57' W 010°44'412.3
2018-May-11 08:00N 52°00' W 010°48'7 7.0 1000.2
2018-May-11 07:00N 52°06' W 010°42'1 1.6 998.7
2018-May-11 06:16N 52°07' W 010°43'1 4.9
2018-May-11 06:00N 52°08' W 010°42'2673.6
2018-May-11 06:00N 52°06' W 010°42'5 9.5 997.2
2018-May-11 05:29N 52°11' W 010°41'1 2.6
2018-May-11 05:00N 52°12' W 010°42'1363.8 994.2
2018-May-11 04:59N 52°12' W 010°41'1 2.8
2018-May-11 04:30N 52°14' W 010°39'5 9.6
2018-May-11 04:00N 52°18' W 010°36'394.9 995.9
2018-May-11 03:57N 52°15' W 010°37'2 2.9
2018-May-11 03:19N 52°16' W 010°35'2 7.6
2018-May-11 03:00N 52°18' W 010°36'2148.9 997.0
2018-May-11 02:59N 52°16' W 010°33'2 3.2
2018-May-11 02:24N 52°17' W 010°31'1 2.2
2018-May-11 02:00N 52°18' W 010°30'4 3.7 998.5
2018-May-11 01:00N 52°18' W 010°24'7 7.0 1000.3
2018-May-11 00:00N 52°24' W 010°18'2 3.1 1002.8
2018-May-10 23:22N 52°25' W 010°16'513.7
2018-May-10 23:00N 52°30' W 010°12'215.8 1004.9
2018-May-10 22:51N 52°28' W 010°13'2 6.3
2018-May-10 22:29N 52°30' W 010°10'3 5.2
2018-May-10 22:00N 52°30' W 010°06'2114.5 1006.3
2018-May-10 21:58N 52°32' W 010°07'3 6.4
2018-May-10 21:30N 52°35' W 010°04'3 6.3
2018-May-10 21:00N 52°37' W 010°00'173.0
2018-May-10 21:00N 52°36' W 010°00'7 7.0 1007.7
2018-May-10 20:00N 52°42' W 009°54'7 7.0 1008.8
2018-May-10 19:00N 52°48' W 009°48'7 7.0 1010.0
2018-May-10 18:00N 52°54' W 009°42'   1011.3

Dump ship's entire track history